Time;durP1;ratioP1;P1;durP2;ratioP2;P2;SDS_P1;SDS_P2;PMS_P1;PMS_P2;Temp;Humidity;BMP_temperature;BMP_pressure;BME280_temperature;BME280_humidity;BME280_pressure;Samples;Min_cycle;Max_cycle;Signal;HPM_P1;HPM_P2
2024/03/11 00:01:12;;;;;;;17.48;9.60;;;11.50;99.90;;;;;;5006445;28;20041;-67
2024/03/11 00:03:39;;;;;;;19.15;8.20;;;11.40;99.90;;;;;;5009360;28;20045;-68
2024/03/11 00:06:05;;;;;;;17.52;8.52;;;11.40;99.90;;;;;;5011619;28;20080;-68
2024/03/11 00:08:31;;;;;;;17.23;8.95;;;11.30;99.90;;;;;;5020508;28;20052;-68
2024/03/11 00:11:00;;;;;;;18.70;8.40;;;11.30;99.90;;;;;;5005362;28;20203;-67
2024/03/11 00:13:32;;;;;;;14.93;7.60;;;11.20;99.90;;;;;;5004718;28;20030;-68
2024/03/11 00:16:02;;;;;;;14.77;7.80;;;11.20;99.90;;;;;;5009962;28;20112;-68
2024/03/11 00:18:28;;;;;;;16.17;8.15;;;11.20;99.90;;;;;;5009524;28;20041;-68
2024/03/11 00:20:58;;;;;;;15.73;8.25;;;11.30;99.90;;;;;;5015306;28;20030;-67
2024/03/11 00:23:24;;;;;;;16.30;8.65;;;11.20;99.90;;;;;;5007185;28;20129;-67
2024/03/11 00:25:50;;;;;;;15.10;8.55;;;11.20;99.90;;;;;;5009912;28;20021;-67
2024/03/11 00:28:17;;;;;;;16.13;8.70;;;11.20;99.90;;;;;;5012471;28;20044;-67
2024/03/11 00:30:44;;;;;;;15.82;8.55;;;11.20;99.90;;;;;;5004175;28;20906;-67
2024/03/11 00:33:10;;;;;;;15.65;7.78;;;11.10;99.90;;;;;;5011806;28;20408;-67
2024/03/11 00:35:36;;;;;;;20.63;7.95;;;11.10;99.90;;;;;;5009507;28;20033;-67
2024/03/11 00:38:07;;;;;;;15.93;8.60;;;11.10;99.90;;;;;;5009996;28;20033;-67
2024/03/11 00:40:34;;;;;;;15.50;8.10;;;11.00;99.90;;;;;;5019632;28;20560;-67
2024/03/11 00:43:00;;;;;;;15.15;7.43;;;11.00;99.90;;;;;;5013116;28;21838;-67
2024/03/11 00:45:26;;;;;;;15.48;7.78;;;11.00;99.90;;;;;;5009945;28;20671;-67
2024/03/11 00:47:52;;;;;;;19.42;8.05;;;11.10;99.90;;;;;;5010101;28;20355;-67
2024/03/11 00:50:19;;;;;;;18.90;8.68;;;11.10;99.90;;;;;;5013796;28;20025;-67
2024/03/11 00:52:46;;;;;;;16.17;8.68;;;11.10;99.90;;;;;;5011333;28;20049;-67
2024/03/11 00:55:12;;;;;;;13.88;7.72;;;11.10;99.90;;;;;;5010015;28;20068;-67
2024/03/11 00:57:39;;;;;;;14.50;7.78;;;11.00;99.90;;;;;;5015813;28;20053;-67
2024/03/11 01:00:08;;;;;;;18.08;7.93;;;11.00;99.90;;;;;;5011769;28;20041;-67
2024/03/11 01:02:34;;;;;;;16.75;7.75;;;10.90;99.90;;;;;;5010693;28;20036;-67
2024/03/11 01:05:00;;;;;;;16.23;8.02;;;10.90;99.90;;;;;;5011999;28;20040;-67
2024/03/11 01:07:26;;;;;;;22.42;8.55;;;10.80;99.90;;;;;;5010158;28;20110;-67
2024/03/11 01:09:53;;;;;;;15.50;7.60;;;10.90;99.90;;;;;;5012116;28;20042;-67
2024/03/11 01:12:22;;;;;;;19.48;8.70;;;11.00;99.90;;;;;;5013569;28;20030;-67
2024/03/11 01:14:48;;;;;;;16.85;8.63;;;11.00;99.90;;;;;;5007306;28;20185;-67
2024/03/11 01:17:14;;;;;;;16.40;8.00;;;11.00;99.90;;;;;;5010730;28;20040;-67
2024/03/11 01:19:39;;;;;;;15.55;7.78;;;11.00;99.90;;;;;;5012933;28;20034;-67
2024/03/11 01:22:05;;;;;;;16.77;8.70;;;11.10;99.90;;;;;;5006581;28;20037;-67
2024/03/11 01:24:31;;;;;;;14.77;7.13;;;11.10;99.90;;;;;;5010762;28;20555;-67
2024/03/11 01:26:57;;;;;;;13.95;7.82;;;11.10;99.90;;;;;;5012010;28;20030;-67
2024/03/11 01:29:26;;;;;;;12.77;7.80;;;11.20;99.90;;;;;;5013517;28;20038;-67
2024/03/11 01:31:52;;;;;;;17.10;7.50;;;11.20;99.90;;;;;;5014127;28;20033;-67
2024/03/11 01:34:21;;;;;;;13.38;7.43;;;11.20;99.90;;;;;;5009832;28;20871;-67
2024/03/11 01:36:47;;;;;;;16.58;7.88;;;11.30;99.90;;;;;;5007427;28;20030;-67
2024/03/11 01:39:25;;;;;;;13.88;7.07;;;11.30;99.90;;;;;;5008550;28;20030;-67
2024/03/11 01:41:52;;;;;;;15.75;7.82;;;11.30;99.90;;;;;;5009465;28;20030;-67
2024/03/11 01:44:20;;;;;;;12.82;6.82;;;11.40;99.90;;;;;;5015659;28;20618;-67
2024/03/11 01:46:47;;;;;;;18.02;8.32;;;11.40;99.90;;;;;;5005465;28;20121;-67
2024/03/11 01:49:16;;;;;;;14.07;7.97;;;11.40;99.90;;;;;;5014590;28;20034;-67
2024/03/11 01:51:43;;;;;;;12.23;7.57;;;11.50;99.90;;;;;;5007606;28;20028;-67
2024/03/11 01:54:10;;;;;;;13.15;7.45;;;11.40;99.90;;;;;;5007074;28;20049;-67
2024/03/11 01:56:37;;;;;;;14.05;8.10;;;11.50;99.90;;;;;;5009612;28;20036;-67
2024/03/11 01:59:04;;;;;;;16.63;8.57;;;11.50;99.90;;;;;;5001931;28;20038;-67
2024/03/11 02:01:30;;;;;;;15.40;7.97;;;11.50;99.90;;;;;;5006544;28;20034;-67
2024/03/11 02:03:56;;;;;;;14.57;7.65;;;11.40;99.90;;;;;;5011616;28;20041;-67
2024/03/11 02:06:24;;;;;;;15.30;7.30;;;11.50;99.90;;;;;;5010122;28;20030;-67
2024/03/11 02:08:50;;;;;;;16.88;8.20;;;11.40;99.90;;;;;;5004156;28;20045;-67
2024/03/11 02:11:17;;;;;;;15.00;7.18;;;11.40;99.90;;;;;;5011495;28;20030;-67
2024/03/11 02:13:44;;;;;;;14.25;7.10;;;11.50;99.90;;;;;;5005544;28;20244;-67
2024/03/11 02:16:11;;;;;;;13.68;6.88;;;11.40;99.90;;;;;;5013566;28;20767;-67
2024/03/11 02:18:37;;;;;;;11.27;6.50;;;11.40;99.90;;;;;;5008604;28;20025;-67
2024/03/11 02:21:03;;;;;;;14.13;7.57;;;11.50;99.90;;;;;;5006916;28;21262;-67
2024/03/11 02:23:28;;;;;;;11.40;6.97;;;11.60;99.90;;;;;;5007055;28;20033;-67
2024/03/11 02:25:55;;;;;;;16.92;6.93;;;11.60;99.90;;;;;;5010460;28;20117;-67
2024/03/11 02:28:22;;;;;;;17.17;7.95;;;11.50;99.90;;;;;;5008592;28;20041;-67
2024/03/11 02:30:48;;;;;;;14.30;7.70;;;11.50;99.90;;;;;;5015294;28;20034;-67
2024/03/11 02:33:14;;;;;;;13.15;6.95;;;11.50;99.90;;;;;;5011651;28;20029;-67
2024/03/11 02:35:40;;;;;;;14.48;7.03;;;11.50;99.90;;;;;;5009174;28;20351;-67
2024/03/11 02:38:06;;;;;;;13.27;7.03;;;11.50;99.90;;;;;;5005817;28;20034;-67
2024/03/11 02:40:37;;;;;;;12.77;7.53;;;11.50;99.90;;;;;;5013147;28;20421;-67
2024/03/11 02:43:05;;;;;;;13.43;7.53;;;11.50;99.90;;;;;;5007673;28;20065;-67
2024/03/11 02:45:31;;;;;;;11.77;6.70;;;11.40;99.90;;;;;;5005901;28;20033;-67
2024/03/11 02:47:57;;;;;;;11.98;6.95;;;11.40;99.90;;;;;;5009432;28;20050;-67
2024/03/11 02:50:23;;;;;;;12.15;7.18;;;11.40;99.90;;;;;;5010814;28;20141;-67
2024/03/11 02:52:49;;;;;;;12.68;6.88;;;11.40;99.90;;;;;;5003761;28;20036;-67
2024/03/11 02:55:18;;;;;;;14.25;8.30;;;11.40;99.90;;;;;;5006542;28;20046;-67
2024/03/11 02:57:48;;;;;;;17.42;7.50;;;11.40;99.90;;;;;;5003641;28;20018;-67
2024/03/11 03:00:15;;;;;;;14.15;7.85;;;11.50;99.90;;;;;;5009484;28;20026;-67
2024/03/11 03:02:41;;;;;;;13.30;7.78;;;11.40;99.90;;;;;;5006201;28;20040;-67
2024/03/11 03:05:08;;;;;;;13.60;7.15;;;11.40;99.90;;;;;;5006514;28;20038;-68
2024/03/11 03:07:35;;;;;;;12.23;7.20;;;11.40;99.90;;;;;;5004685;28;20026;-67
2024/03/11 03:10:02;;;;;;;14.63;7.05;;;11.40;99.90;;;;;;5003122;28;20120;-67
2024/03/11 03:12:31;;;;;;;20.65;8.02;;;11.40;99.90;;;;;;5004984;28;20045;-66
2024/03/11 03:14:58;;;;;;;13.00;6.88;;;11.40;99.90;;;;;;5005855;28;20034;-67
2024/03/11 03:17:24;;;;;;;15.77;7.32;;;11.40;99.90;;;;;;5009321;28;20033;-67
2024/03/11 03:19:50;;;;;;;16.52;7.18;;;11.40;99.90;;;;;;5006826;28;20057;-67
2024/03/11 03:22:16;;;;;;;13.25;7.05;;;11.50;99.90;;;;;;5006569;28;20061;-67
2024/03/11 03:24:42;;;;;;;14.48;7.63;;;11.40;99.90;;;;;;5008444;28;20030;-67
2024/03/11 03:27:08;;;;;;;14.27;7.55;;;11.40;99.90;;;;;;5004704;28;20044;-67
2024/03/11 03:29:35;;;;;;;14.52;7.43;;;11.40;99.90;;;;;;5013916;28;20099;-67
2024/03/11 03:32:01;;;;;;;12.75;6.95;;;11.40;99.90;;;;;;5011094;28;20037;-67
2024/03/11 03:34:27;;;;;;;13.65;7.00;;;11.40;99.90;;;;;;5001552;28;20517;-67
2024/03/11 03:36:53;;;;;;;12.15;6.70;;;11.40;99.90;;;;;;5004658;28;20028;-67
2024/03/11 03:39:20;;;;;;;14.40;7.63;;;11.50;99.90;;;;;;5016181;28;20105;-68
2024/03/11 03:41:46;;;;;;;15.32;8.43;;;11.40;99.90;;;;;;5007169;28;20030;-67
2024/03/11 03:44:11;;;;;;;16.13;7.50;;;11.50;99.90;;;;;;5012827;28;20040;-67
2024/03/11 03:46:37;;;;;;;12.60;7.43;;;11.40;99.90;;;;;;5014060;28;20037;-67
2024/03/11 03:49:03;;;;;;;14.82;8.05;;;11.40;99.90;;;;;;5008370;28;20029;-67
2024/03/11 03:51:29;;;;;;;16.95;7.90;;;11.50;99.90;;;;;;5007723;28;20490;-67
2024/03/11 03:53:56;;;;;;;14.05;7.55;;;11.40;99.90;;;;;;5014243;28;20033;-67
2024/03/11 03:56:25;;;;;;;13.88;8.35;;;11.30;99.90;;;;;;5008132;28;20033;-67
2024/03/11 03:58:52;;;;;;;16.55;7.72;;;11.40;99.90;;;;;;5010821;28;20473;-67
2024/03/11 04:01:18;;;;;;;11.90;7.15;;;11.30;99.90;;;;;;5008944;28;20038;-67
2024/03/11 04:03:43;;;;;;;17.92;7.45;;;11.40;99.90;;;;;;5009466;28;20427;-67
2024/03/11 04:06:09;;;;;;;12.23;7.03;;;11.40;99.90;;;;;;5012388;28;20091;-67
2024/03/11 04:08:35;;;;;;;16.05;7.63;;;11.30;99.90;;;;;;5015147;28;20033;-67
2024/03/11 04:11:01;;;;;;;14.35;8.38;;;11.30;99.90;;;;;;5009310;28;20044;-67
2024/03/11 04:13:27;;;;;;;13.48;7.18;;;11.40;99.90;;;;;;5011553;28;20014;-67
2024/03/11 04:15:56;;;;;;;12.45;7.40;;;11.40;99.90;;;;;;5010189;28;20049;-67
2024/03/11 04:18:24;;;;;;;14.65;6.93;;;11.40;99.90;;;;;;5009270;28;20025;-67
2024/03/11 04:20:55;;;;;;;12.63;7.10;;;11.40;99.90;;;;;;5008452;28;20044;-67
2024/03/11 04:23:26;;;;;;;14.10;7.72;;;11.40;99.90;;;;;;5029529;28;20429;-67
2024/03/11 04:25:51;;;;;;;15.73;8.25;;;11.40;99.90;;;;;;5011980;28;20053;-67
2024/03/11 04:28:18;;;;;;;12.60;7.28;;;11.40;99.90;;;;;;5012874;28;20026;-67
2024/03/11 04:30:48;;;;;;;12.10;7.13;;;11.30;99.90;;;;;;5015889;28;20033;-67
2024/03/11 04:33:16;;;;;;;13.63;7.30;;;11.30;99.90;;;;;;5011777;28;20042;-67
2024/03/11 04:35:43;;;;;;;16.58;8.02;;;11.40;99.90;;;;;;5001014;28;20026;-67
2024/03/11 04:38:09;;;;;;;11.63;6.82;;;11.40;99.90;;;;;;5009323;28;20069;-66
2024/03/11 04:40:40;;;;;;;12.00;6.85;;;11.40;99.90;;;;;;5006022;28;20030;-67
2024/03/11 04:43:06;;;;;;;13.32;7.70;;;11.40;99.90;;;;;;5017024;28;20063;-67
2024/03/11 04:45:32;;;;;;;18.58;8.00;;;11.30;99.90;;;;;;5008080;28;20037;-67
2024/03/11 04:48:00;;;;;;;12.88;7.20;;;11.20;99.90;;;;;;5011334;28;20049;-67
2024/03/11 04:50:28;;;;;;;12.13;6.45;;;11.10;99.90;;;;;;5006044;28;20565;-67
2024/03/11 04:52:58;;;;;;;14.38;7.20;;;11.10;99.90;;;;;;5008345;28;20033;-67
2024/03/11 04:55:24;;;;;;;12.63;6.78;;;11.10;99.90;;;;;;5010423;28;20033;-67
2024/03/11 04:57:52;;;;;;;13.63;8.30;;;11.20;99.90;;;;;;5008448;28;20041;-67
2024/03/11 05:00:18;;;;;;;16.25;8.10;;;11.20;99.90;;;;;;5011796;28;20121;-67
2024/03/11 05:02:44;;;;;;;12.18;6.40;;;11.20;99.90;;;;;;5007472;28;20164;-67
2024/03/11 05:05:10;;;;;;;15.60;7.90;;;11.30;99.90;;;;;;5007064;28;20124;-67
2024/03/11 05:07:37;;;;;;;12.45;7.95;;;11.40;99.90;;;;;;5013694;28;20037;-67
2024/03/11 05:10:04;;;;;;;14.73;8.15;;;11.40;99.90;;;;;;5006354;28;20079;-67
2024/03/11 05:12:30;;;;;;;13.82;7.63;;;11.30;99.90;;;;;;5010020;28;20047;-67
2024/03/11 05:14:56;;;;;;;15.32;7.10;;;11.20;99.90;;;;;;5010816;28;20026;-67
2024/03/11 05:17:22;;;;;;;15.88;7.65;;;11.10;99.90;;;;;;5008193;28;20755;-67
2024/03/11 05:19:48;;;;;;;11.40;7.30;;;11.20;99.90;;;;;;5010158;28;20041;-67
2024/03/11 05:22:15;;;;;;;11.75;7.75;;;11.10;99.90;;;;;;5011934;28;20040;-67
2024/03/11 05:24:41;;;;;;;14.55;8.05;;;11.10;99.90;;;;;;5010651;28;20118;-67
2024/03/11 05:27:06;;;;;;;16.35;7.32;;;11.10;99.90;;;;;;5009458;28;20132;-67
2024/03/11 05:29:32;;;;;;;15.13;7.10;;;11.10;99.90;;;;;;5010848;28;20037;-67
2024/03/11 05:31:59;;;;;;;17.30;7.55;;;11.10;99.90;;;;;;5006634;28;20034;-67
2024/03/11 05:34:25;;;;;;;16.05;8.13;;;11.20;99.90;;;;;;5007896;28;20031;-67
2024/03/11 05:36:51;;;;;;;13.50;7.18;;;11.20;99.90;;;;;;5014034;28;20033;-67
2024/03/11 05:39:17;;;;;;;16.98;8.00;;;11.20;99.90;;;;;;5027270;28;20037;-67
2024/03/11 05:41:46;;;;;;;13.13;7.25;;;11.20;99.90;;;;;;5005287;28;20114;-67
2024/03/11 05:44:12;;;;;;;12.40;7.35;;;11.10;99.90;;;;;;5010273;28;20044;-67
2024/03/11 05:46:37;;;;;;;15.77;7.50;;;11.10;99.90;;;;;;5006238;28;20030;-67
2024/03/11 05:49:11;;;;;;;13.07;8.07;;;11.20;99.90;;;;;;5008253;28;20508;-67
2024/03/11 05:51:37;;;;;;;12.27;6.47;;;11.10;99.90;;;;;;5012635;28;20041;-67
2024/03/11 05:54:03;;;;;;;13.63;7.65;;;11.10;99.90;;;;;;5004559;28;20107;-67
2024/03/11 05:56:29;;;;;;;12.13;7.18;;;11.20;99.90;;;;;;5003032;28;20029;-67
2024/03/11 05:58:55;;;;;;;13.55;6.47;;;11.20;99.90;;;;;;5009451;28;20075;-67
2024/03/11 06:01:24;;;;;;;15.05;8.15;;;11.20;99.90;;;;;;5006372;28;20775;-67
2024/03/11 06:03:50;;;;;;;14.25;7.55;;;11.30;99.90;;;;;;5009775;28;20132;-67
2024/03/11 06:06:20;;;;;;;15.25;7.75;;;11.30;99.90;;;;;;5009837;28;20751;-67
2024/03/11 06:08:46;;;;;;;15.10;8.02;;;11.30;99.90;;;;;;5012531;28;20033;-67
2024/03/11 06:11:12;;;;;;;14.18;7.70;;;11.30;99.90;;;;;;5004459;28;20045;-67
2024/03/11 06:13:37;;;;;;;14.30;7.60;;;11.20;99.90;;;;;;5007806;28;20125;-67
2024/03/11 06:16:07;;;;;;;12.98;7.38;;;11.10;99.90;;;;;;5004315;28;20030;-67
2024/03/11 06:18:39;;;;;;;12.18;6.60;;;11.20;99.90;;;;;;5002724;28;20421;-67
2024/03/11 06:21:08;;;;;;;12.70;7.85;;;11.20;99.90;;;;;;5011387;28;20046;-67
2024/03/11 06:23:34;;;;;;;15.35;7.63;;;11.30;99.90;;;;;;5013402;28;20564;-67
2024/03/11 06:26:00;;;;;;;16.27;8.18;;;11.40;99.90;;;;;;5007203;28;20493;-67
2024/03/11 06:28:26;;;;;;;13.82;7.65;;;11.40;99.90;;;;;;5009356;28;20044;-67
2024/03/11 06:30:56;;;;;;;10.60;6.65;;;11.50;99.90;;;;;;5010566;28;20373;-67
2024/03/11 06:33:22;;;;;;;11.98;7.65;;;11.60;99.90;;;;;;5005517;28;20080;-67
2024/03/11 06:35:48;;;;;;;16.00;8.30;;;11.60;99.90;;;;;;5012478;28;20029;-67
2024/03/11 06:38:16;;;;;;;14.57;7.03;;;11.70;99.90;;;;;;5012000;28;20030;-67
2024/03/11 06:40:43;;;;;;;14.43;7.13;;;11.60;99.90;;;;;;5010109;28;20081;-67
2024/03/11 06:43:09;;;;;;;15.77;7.65;;;11.60;99.90;;;;;;5013614;28;20029;-67
2024/03/11 06:45:34;;;;;;;15.23;7.97;;;11.60;99.90;;;;;;5001938;28;20128;-67
2024/03/11 06:48:00;;;;;;;14.52;7.75;;;11.60;99.90;;;;;;5001599;28;20759;-67
2024/03/11 06:50:26;;;;;;;14.00;7.53;;;11.70;99.90;;;;;;5016450;28;20112;-67
2024/03/11 06:52:52;;;;;;;15.60;7.68;;;11.70;99.90;;;;;;5008315;28;20032;-67
2024/03/11 06:55:18;;;;;;;16.73;8.45;;;11.80;99.90;;;;;;5008474;28;20851;-67
2024/03/11 06:57:44;;;;;;;14.63;7.70;;;11.80;99.90;;;;;;5014070;28;20136;-67
2024/03/11 07:00:17;;;;;;;14.30;8.15;;;11.80;99.90;;;;;;5009249;28;20087;-67
2024/03/11 07:02:52;;;;;;;13.05;7.47;;;11.90;99.90;;;;;;5010406;28;20033;-67
2024/03/11 07:05:26;;;;;;;13.40;7.45;;;11.80;99.90;;;;;;5006516;28;20232;-67
2024/03/11 07:07:52;;;;;;;12.85;7.43;;;11.90;99.90;;;;;;5009772;28;20037;-67
2024/03/11 07:10:18;;;;;;;17.15;7.97;;;11.90;99.90;;;;;;5004146;28;20030;-67
2024/03/11 07:12:45;;;;;;;18.55;7.78;;;11.90;99.90;;;;;;5010633;28;20025;-67
2024/03/11 07:15:11;;;;;;;17.25;8.32;;;12.00;99.90;;;;;;5001018;28;20066;-67
2024/03/11 07:17:37;;;;;;;17.00;7.47;;;11.90;99.90;;;;;;5006846;28;20021;-67
2024/03/11 07:20:38;;;;;;;12.30;7.00;;;11.90;99.90;;;;;;5010039;28;20758;-67
2024/03/11 07:22:56;;;;;;;14.35;7.93;;;12.00;99.90;;;;;;5015078;28;20061;-67
2024/03/11 07:25:22;;;;;;;13.20;8.13;;;12.10;99.90;;;;;;5009079;28;20088;-67
2024/03/11 07:27:48;;;;;;;12.70;7.57;;;12.10;99.90;;;;;;5005905;28;20064;-67
2024/03/11 07:30:14;;;;;;;13.20;7.28;;;12.20;99.90;;;;;;5008725;28;20044;-67
2024/03/11 07:32:43;;;;;;;13.02;7.75;;;12.30;99.90;;;;;;5014066;28;20568;-67
2024/03/11 07:35:09;;;;;;;11.45;7.30;;;12.40;99.90;;;;;;5012554;28;20029;-67
2024/03/11 07:37:40;;;;;;;15.07;7.72;;;12.40;99.90;;;;;;5005165;28;20053;-67
2024/03/11 07:40:10;;;;;;;16.35;8.48;;;12.40;99.90;;;;;;5012487;28;20064;-67
2024/03/11 07:42:37;;;;;;;12.73;8.35;;;12.50;99.90;;;;;;5012306;28;20029;-67
2024/03/11 07:45:03;;;;;;;14.25;7.68;;;12.50;99.90;;;;;;5006381;28;20037;-67
2024/03/11 07:47:29;;;;;;;16.40;7.88;;;12.50;99.90;;;;;;5008755;28;20030;-67
2024/03/11 07:49:58;;;;;;;19.73;8.55;;;12.50;99.90;;;;;;5010726;28;20037;-67
2024/03/11 07:52:24;;;;;;;16.42;8.80;;;12.60;99.90;;;;;;5012091;28;20029;-67
2024/03/11 07:54:50;;;;;;;14.75;9.27;;;12.70;99.90;;;;;;5008049;28;20037;-68
2024/03/11 07:57:16;;;;;;;17.52;9.32;;;12.70;99.90;;;;;;5012828;28;20033;-67
2024/03/11 07:59:41;;;;;;;12.88;7.97;;;12.70;99.90;;;;;;5004097;28;20071;-67
2024/03/11 08:02:07;;;;;;;15.95;9.00;;;12.80;99.90;;;;;;5015413;28;20072;-67
2024/03/11 08:04:33;;;;;;;16.55;8.70;;;12.70;99.90;;;;;;5010709;28;20030;-68
2024/03/11 08:06:59;;;;;;;17.05;9.00;;;12.70;99.90;;;;;;5008690;28;20021;-68
2024/03/11 08:09:28;;;;;;;14.85;8.50;;;12.60;99.90;;;;;;5014258;28;20033;-68
2024/03/11 08:11:55;;;;;;;17.98;9.15;;;12.70;99.90;;;;;;5015284;28;20029;-68
2024/03/11 08:14:21;;;;;;;15.50;8.55;;;12.80;99.90;;;;;;5005288;28;20123;-68
2024/03/11 08:16:47;;;;;;;15.05;8.90;;;12.80;99.90;;;;;;5003882;28;20030;-68
2024/03/11 08:19:13;;;;;;;17.55;9.63;;;12.80;99.90;;;;;;5008470;28;20035;-67
2024/03/11 08:21:40;;;;;;;15.77;9.93;;;12.90;99.90;;;;;;5007887;28;20038;-68
2024/03/11 08:24:06;;;;;;;16.05;9.95;;;12.90;99.90;;;;;;5012178;28;20033;-68
2024/03/11 08:26:33;;;;;;;15.38;8.65;;;13.10;99.90;;;;;;5019030;28;20578;-68
2024/03/11 08:28:58;;;;;;;19.10;10.45;;;13.20;99.90;;;;;;5012959;28;20060;-68
2024/03/11 08:31:25;;;;;;;18.42;10.45;;;13.40;99.90;;;;;;5007310;28;20033;-66
2024/03/11 08:33:51;;;;;;;19.73;10.63;;;13.40;99.90;;;;;;5009216;28;20118;-68
2024/03/11 08:36:17;;;;;;;20.05;11.23;;;13.50;99.90;;;;;;5007905;28;20038;-68
2024/03/11 08:38:43;;;;;;;19.10;10.93;;;13.30;99.90;;;;;;5002352;28;20041;-68
2024/03/11 08:41:09;;;;;;;19.23;11.55;;;13.30;99.90;;;;;;5012480;28;20029;-68
2024/03/11 08:43:35;;;;;;;21.25;12.50;;;13.40;99.90;;;;;;5007478;28;20622;-67
2024/03/11 08:46:01;;;;;;;22.48;13.35;;;13.20;99.90;;;;;;5006176;28;20382;-68
2024/03/11 08:48:26;;;;;;;24.80;13.52;;;13.20;99.90;;;;;;5013095;28;20563;-68
2024/03/11 08:50:53;;;;;;;22.67;13.32;;;13.20;99.90;;;;;;5010322;28;20123;-67
2024/03/11 08:53:19;;;;;;;20.27;12.90;;;13.20;99.90;;;;;;5012058;28;20032;-67
2024/03/11 08:55:45;;;;;;;24.65;12.98;;;13.10;99.90;;;;;;5007831;28;20083;-67
2024/03/11 08:58:12;;;;;;;23.92;13.40;;;12.90;99.90;;;;;;5009592;28;20026;-67
2024/03/11 09:00:38;;;;;;;21.65;13.52;;;12.70;99.90;;;;;;5007662;28;20045;-68
2024/03/11 09:03:05;;;;;;;24.38;14.15;;;12.70;99.90;;;;;;5010753;28;20114;-68
2024/03/11 09:05:31;;;;;;;23.05;13.98;;;12.80;99.90;;;;;;5006977;28;20129;-68
2024/03/11 09:08:03;;;;;;;23.13;14.32;;;12.70;99.90;;;;;;5003891;28;20049;-67
2024/03/11 09:10:29;;;;;;;24.80;13.93;;;12.80;99.90;;;;;;5019354;28;20030;-69
2024/03/11 09:12:56;;;;;;;25.33;15.52;;;12.90;99.90;;;;;;5027952;28;20022;-69
2024/03/11 09:15:25;;;;;;;25.08;15.27;;;13.00;99.90;;;;;;5004181;28;20022;-68
2024/03/11 09:17:51;;;;;;;25.73;14.27;;;13.10;99.90;;;;;;5011748;28;20029;-68
2024/03/11 09:20:19;;;;;;;25.48;14.88;;;13.20;99.90;;;;;;5006451;28;20049;-68
2024/03/11 09:22:50;;;;;;;24.45;14.93;;;13.40;99.90;;;;;;5006438;28;20490;-68
2024/03/11 09:25:18;;;;;;;23.85;13.88;;;13.40;99.90;;;;;;5017196;28;20052;-67
2024/03/11 09:27:49;;;;;;;27.63;16.05;;;13.60;99.90;;;;;;5013176;28;20038;-65
2024/03/11 09:30:17;;;;;;;26.25;15.57;;;13.70;99.90;;;;;;5012914;28;20037;-67
2024/03/11 09:32:50;;;;;;;22.33;14.30;;;14.00;99.90;;;;;;5015660;28;20026;-68
2024/03/11 09:35:17;;;;;;;23.77;15.57;;;14.20;99.90;;;;;;5006341;28;20054;-68
2024/03/11 09:37:46;;;;;;;27.90;15.50;;;14.30;99.90;;;;;;5003468;28;20030;-68
2024/03/11 09:40:16;;;;;;;25.73;14.57;;;14.50;99.90;;;;;;5013768;28;20033;-68
2024/03/11 09:42:46;;;;;;;24.38;14.07;;;14.60;99.90;;;;;;5004458;28;20026;-68
2024/03/11 09:45:17;;;;;;;23.50;14.80;;;14.40;99.90;;;;;;5007255;28;20025;-68
2024/03/11 09:47:51;;;;;;;24.58;14.13;;;14.60;99.90;;;;;;5010388;28;20038;-67
2024/03/11 09:50:24;;;;;;;22.88;13.85;;;15.00;99.90;;;;;;5004398;28;20038;-67
2024/03/11 09:52:52;;;;;;;21.13;13.35;;;15.20;99.90;;;;;;5008945;28;20049;-67
2024/03/11 09:55:18;;;;;;;19.30;13.00;;;15.20;99.90;;;;;;5012071;28;20030;-67
2024/03/11 09:57:45;;;;;;;19.17;13.45;;;15.40;99.90;;;;;;5005402;28;20030;-73
2024/03/11 10:00:14;;;;;;;18.15;12.10;;;15.60;99.90;;;;;;5007704;28;20516;-68
2024/03/11 10:02:44;;;;;;;24.70;14.40;;;15.60;99.40;;;;;;5009892;28;20140;-67
2024/03/11 10:05:10;;;;;;;25.27;14.40;;;15.20;99.70;;;;;;5004874;28;20141;-67
2024/03/11 10:07:36;;;;;;;19.95;12.93;;;15.00;99.90;;;;;;5011490;28;20449;-67
2024/03/11 10:10:10;;;;;;;20.42;13.50;;;14.60;99.90;;;;;;5008243;28;20034;-67
2024/03/11 10:12:52;;;;;;;21.90;13.27;;;14.40;99.90;;;;;;5000924;28;20053;-67
2024/03/11 10:15:29;;;;;;;23.52;14.30;;;14.20;99.90;;;;;;5003238;28;20398;-67
2024/03/11 10:18:15;;;;;;;25.05;15.23;;;14.10;99.90;;;;;;5007928;28;20053;-68
2024/03/11 10:20:43;;;;;;;44.00;21.05;;;14.10;99.90;;;;;;4997914;28;20040;-67
2024/03/11 10:23:09;;;;;;;30.83;19.42;;;14.60;99.90;;;;;;5008111;28;20129;-67
2024/03/11 10:25:36;;;;;;;22.60;15.25;;;15.20;99.90;;;;;;5009358;28;20068;-67
2024/03/11 10:28:06;;;;;;;21.33;13.88;;;15.30;99.90;;;;;;5002575;28;20026;-67
2024/03/11 10:30:32;;;;;;;21.55;13.73;;;15.20;99.90;;;;;;5005209;28;20041;-67
2024/03/11 10:33:01;;;;;;;20.08;13.02;;;15.20;99.90;;;;;;5002741;28;20041;-67
2024/03/11 10:35:39;;;;;;;20.10;12.55;;;15.10;99.90;;;;;;4999639;28;20044;-67
2024/03/11 10:38:13;;;;;;;19.65;12.48;;;15.20;99.90;;;;;;5014453;28;20639;-67
2024/03/11 10:40:44;;;;;;;19.73;12.30;;;15.20;99.60;;;;;;5021664;28;20022;-67
2024/03/11 10:43:23;;;;;;;20.50;12.65;;;15.30;99.80;;;;;;4999170;28;20515;-67
2024/03/11 10:45:48;;;;;;;16.20;11.40;;;15.30;99.90;;;;;;5010351;28;20048;-67
2024/03/11 10:48:20;;;;;;;19.30;12.02;;;15.50;99.80;;;;;;5003467;28;20034;-67
2024/03/11 10:50:46;;;;;;;16.80;11.20;;;15.70;98.90;;;;;;5003380;28;20819;-68
2024/03/11 10:53:21;;;;;;;15.18;10.48;;;15.70;98.30;;;;;;5009228;28;20152;-67
2024/03/11 10:55:58;;;;;;;17.83;12.40;;;15.70;98.40;;;;;;5006481;28;20033;-67
2024/03/11 10:58:31;;;;;;;21.77;11.93;;;15.60;98.90;;;;;;5004173;28;20667;-67
2024/03/11 11:01:02;;;;;;;16.83;11.43;;;15.50;98.60;;;;;;5002928;28;20033;-68
2024/03/11 11:03:30;;;;;;;17.33;10.85;;;15.20;98.60;;;;;;5008183;28;20033;-68
2024/03/11 11:06:01;;;;;;;20.23;12.50;;;14.70;99.00;;;;;;5003302;28;20109;-68
2024/03/11 11:08:30;;;;;;;18.27;12.05;;;14.30;99.90;;;;;;5006003;28;20030;-68
2024/03/11 11:10:58;;;;;;;19.35;10.70;;;14.30;99.90;;;;;;5003701;28;20064;-68
2024/03/11 11:13:26;;;;;;;15.60;9.88;;;14.40;99.90;;;;;;5002563;28;20489;-68
2024/03/11 11:15:54;;;;;;;16.10;11.00;;;14.60;99.60;;;;;;5006541;28;20030;-68
2024/03/11 11:18:24;;;;;;;16.02;10.57;;;14.60;99.60;;;;;;5009179;28;20080;-67
2024/03/11 11:20:52;;;;;;;17.33;10.02;;;14.60;99.30;;;;;;5002933;28;20067;-66
2024/03/11 11:23:28;;;;;;;14.32;10.10;;;14.50;99.10;;;;;;5012836;28;20072;-67
2024/03/11 11:25:56;;;;;;;15.48;9.82;;;14.50;99.70;;;;;;5000380;28;20030;-66
2024/03/11 11:28:30;;;;;;;14.65;9.40;;;14.50;99.40;;;;;;5011089;28;20026;-68
2024/03/11 11:31:25;;;;;;;14.52;9.80;;;14.50;99.90;;;;;;5007633;28;20033;-67
2024/03/11 11:33:56;;;;;;;18.13;9.65;;;14.50;99.40;;;;;;5003210;28;20148;-67
2024/03/11 11:36:36;;;;;;;112.30;36.35;;;14.60;99.90;;;;;;5011673;28;20129;-66
2024/03/11 11:39:13;;;;;;;14.35;9.77;;;14.70;99.90;;;;;;5005263;28;20026;-67
2024/03/11 11:41:47;;;;;;;12.63;8.80;;;14.60;99.50;;;;;;5009732;28;20030;-67
2024/03/11 11:44:36;;;;;;;15.23;9.45;;;14.20;99.60;;;;;;5007710;28;20253;-65
2024/03/11 11:47:01;;;;;;;12.50;7.97;;;13.90;99.90;;;;;;5002010;28;20045;-66
2024/03/11 11:49:34;;;;;;;10.38;7.22;;;13.60;99.90;;;;;;5002470;28;20034;-67
2024/03/11 11:52:02;;;;;;;9.80;6.88;;;13.60;99.90;;;;;;5005027;28;20220;-67
2024/03/11 11:54:29;;;;;;;9.70;6.50;;;13.50;99.90;;;;;;5010581;28;20038;-67
2024/03/11 11:57:24;;;;;;;13.60;7.47;;;13.50;99.90;;;;;;5005409;28;20076;-67
2024/03/11 11:59:57;;;;;;;10.23;6.80;;;13.60;99.90;;;;;;5003987;28;20034;-67
2024/03/11 12:02:27;;;;;;;8.20;6.32;;;13.90;99.90;;;;;;5006572;28;20026;-67
2024/03/11 12:05:00;;;;;;;9.90;5.55;;;14.00;99.80;;;;;;5004726;28;20067;-67
2024/03/11 12:07:28;;;;;;;10.73;5.50;;;14.20;99.90;;;;;;5003125;28;20030;-66
2024/03/11 12:09:58;;;;;;;7.80;5.15;;;14.50;99.50;;;;;;5004601;28;20033;-66
2024/03/11 12:12:30;;;;;;;9.55;4.28;;;14.70;98.40;;;;;;5008624;28;20022;-66
2024/03/11 12:14:56;;;;;;;5.25;4.10;;;14.90;97.30;;;;;;5006409;28;20025;-66
2024/03/11 12:17:25;;;;;;;7.00;4.30;;;14.90;96.90;;;;;;5001819;28;20060;-67
2024/03/11 12:20:14;;;;;;;6.35;3.97;;;15.00;97.80;;;;;;5000697;28;20100;-67
2024/03/11 12:22:41;;;;;;;6.25;4.28;;;15.00;96.40;;;;;;5007957;28;20030;-66
2024/03/11 12:25:12;;;;;;;5.78;3.95;;;15.20;96.00;;;;;;5002803;28;20038;-67
2024/03/11 12:27:42;;;;;;;5.20;3.85;;;15.40;95.70;;;;;;5010924;28;20025;-67
2024/03/11 12:30:16;;;;;;;6.07;3.78;;;15.30;95.80;;;;;;5014380;28;20065;-66
2024/03/11 12:32:44;;;;;;;6.15;4.00;;;15.30;95.70;;;;;;5007149;28;20037;-67
2024/03/11 12:35:12;;;;;;;6.28;4.20;;;15.20;95.40;;;;;;5014887;28;20152;-67
2024/03/11 12:37:42;;;;;;;4.40;3.35;;;15.00;95.30;;;;;;5011225;28;20752;-67
2024/03/11 12:40:18;;;;;;;4.63;3.50;;;14.90;96.10;;;;;;5003150;28;20049;-67